Time;durP1;ratioP1;P1;durP2;ratioP2;P2;SDS_P1;SDS_P2;PMS_P1;PMS_P2;Temp;Humidity;BMP_temperature;BMP_pressure;BME280_temperature;BME280_humidity;BME280_pressure;Samples;Min_cycle;Max_cycle;Signal;HPM_P1;HPM_P2
2021/01/19 00:02:03;;;;;;;33.88;24.35;;;4.80;97.50;;;;;;5028425;28;20489;-82
2021/01/19 00:04:29;;;;;;;32.83;24.42;;;4.80;97.60;;;;;;5057446;28;20050;-83
2021/01/19 00:06:55;;;;;;;32.03;24.75;;;4.80;97.60;;;;;;5051848;28;20048;-82
2021/01/19 00:09:20;;;;;;;34.90;26.40;;;4.80;97.50;;;;;;5029775;28;20036;-82
2021/01/19 00:11:46;;;;;;;34.53;26.13;;;4.80;97.50;;;;;;5038748;28;20041;-82
2021/01/19 00:14:12;;;;;;;39.47;30.05;;;4.90;97.50;;;;;;5048464;28;20109;-82
2021/01/19 00:16:38;;;;;;;36.72;30.02;;;4.90;97.50;;;;;;5017063;28;20044;-84
2021/01/19 00:19:03;;;;;;;40.55;32.33;;;4.90;97.60;;;;;;5037850;28;20061;-82
2021/01/19 00:21:29;;;;;;;45.17;32.30;;;4.90;97.70;;;;;;5014796;28;20481;-82
2021/01/19 00:23:55;;;;;;;45.70;32.70;;;4.80;97.70;;;;;;5008597;28;20460;-82
2021/01/19 00:26:21;;;;;;;44.15;32.40;;;4.80;97.80;;;;;;5029269;28;20045;-83
2021/01/19 00:28:46;;;;;;;45.97;34.42;;;4.90;97.80;;;;;;5036923;28;20110;-82
2021/01/19 00:31:12;;;;;;;41.58;34.17;;;4.80;97.90;;;;;;5001708;28;20049;-83
2021/01/19 00:33:38;;;;;;;50.55;35.67;;;4.80;97.90;;;;;;5019695;28;20044;-82
2021/01/19 00:36:04;;;;;;;48.40;36.30;;;4.80;98.00;;;;;;4997906;28;20597;-82
2021/01/19 00:38:29;;;;;;;51.97;37.00;;;4.80;98.10;;;;;;5039718;28;20080;-82
2021/01/19 00:40:56;;;;;;;52.83;37.42;;;4.80;98.10;;;;;;5010000;28;20061;-82
2021/01/19 00:43:21;;;;;;;56.30;37.42;;;4.80;98.20;;;;;;5003396;28;20564;-82
2021/01/19 00:45:47;;;;;;;54.95;37.40;;;4.80;98.50;;;;;;5043022;28;20068;-82
2021/01/19 00:48:13;;;;;;;58.28;39.30;;;4.80;98.30;;;;;;5044296;28;20066;-83
2021/01/19 00:50:39;;;;;;;63.00;41.17;;;4.80;98.30;;;;;;5026441;28;20165;-82
2021/01/19 00:53:05;;;;;;;67.00;43.63;;;4.80;98.40;;;;;;5029397;28;20053;-82
2021/01/19 00:55:30;;;;;;;67.90;43.67;;;4.70;98.40;;;;;;5003476;28;20041;-82
2021/01/19 00:57:56;;;;;;;69.97;45.53;;;4.80;98.50;;;;;;4995851;28;20112;-82
2021/01/19 01:00:22;;;;;;;73.50;46.70;;;4.70;98.60;;;;;;5029804;28;20465;-82
2021/01/19 01:02:48;;;;;;;83.22;50.92;;;4.70;98.60;;;;;;5027376;28;20265;-83
2021/01/19 01:05:15;;;;;;;90.30;51.92;;;4.70;98.70;;;;;;5001559;28;20041;-83
2021/01/19 01:07:41;;;;;;;93.55;50.05;;;4.70;98.70;;;;;;5000795;28;20056;-82
2021/01/19 01:10:13;;;;;;;89.32;54.63;;;4.70;98.80;;;;;;5018342;28;20043;-82
2021/01/19 01:12:43;;;;;;;96.95;56.10;;;4.70;98.90;;;;;;5008332;28;20147;-82
2021/01/19 01:15:10;;;;;;;85.82;52.03;;;4.70;99.00;;;;;;4998055;28;20057;-82
2021/01/19 01:17:40;;;;;;;91.57;51.53;;;4.70;99.10;;;;;;5031414;28;20582;-82
2021/01/19 01:20:10;;;;;;;89.53;52.90;;;4.70;99.10;;;;;;5051563;28;20034;-82
2021/01/19 01:22:46;;;;;;;103.95;57.38;;;4.80;99.20;;;;;;5042914;28;20112;-82
2021/01/19 01:25:13;;;;;;;79.43;50.58;;;4.80;99.30;;;;;;5026995;28;20373;-82
2021/01/19 01:27:40;;;;;;;104.72;56.75;;;4.80;99.30;;;;;;5030090;28;20067;-82
2021/01/19 01:30:07;;;;;;;111.88;57.70;;;4.80;99.40;;;;;;5021457;28;20041;-83
2021/01/19 01:32:33;;;;;;;88.82;52.97;;;4.80;99.30;;;;;;5028593;28;20076;-83
2021/01/19 01:34:59;;;;;;;102.50;56.63;;;4.90;99.40;;;;;;5021135;28;20084;-82
2021/01/19 01:37:24;;;;;;;102.60;57.00;;;4.80;99.40;;;;;;5058134;28;20050;-82
2021/01/19 01:39:50;;;;;;;87.28;52.53;;;4.90;99.50;;;;;;5023271;28;20065;-82
2021/01/19 01:42:20;;;;;;;90.75;56.20;;;4.90;99.50;;;;;;5057553;28;20085;-82
2021/01/19 01:44:47;;;;;;;102.30;56.63;;;4.90;99.50;;;;;;5032780;28;20037;-82
2021/01/19 01:47:27;;;;;;;87.95;52.78;;;4.90;99.50;;;;;;5018934;28;20407;-82
2021/01/19 01:49:54;;;;;;;86.65;53.03;;;5.00;99.50;;;;;;5035638;28;20048;-82
2021/01/19 01:52:22;;;;;;;91.50;53.95;;;5.00;99.50;;;;;;5044332;28;20109;-82
2021/01/19 01:54:50;;;;;;;80.28;53.03;;;5.00;99.50;;;;;;5020742;28;20045;-82
2021/01/19 01:57:18;;;;;;;85.80;50.33;;;5.00;99.50;;;;;;5038921;28;20386;-83
2021/01/19 01:59:48;;;;;;;70.65;46.75;;;5.00;99.50;;;;;;5034470;28;20507;-82
2021/01/19 02:02:14;;;;;;;69.03;46.80;;;5.00;99.40;;;;;;5029430;28;20350;-83
2021/01/19 02:04:40;;;;;;;84.43;50.83;;;5.00;99.40;;;;;;5040122;28;20045;-82
2021/01/19 02:07:16;;;;;;;69.32;46.67;;;5.00;99.40;;;;;;5025219;28;20056;-82
2021/01/19 02:09:55;;;;;;;68.20;47.35;;;5.10;99.40;;;;;;5037523;28;20714;-82
2021/01/19 02:12:29;;;;;;;61.55;46.33;;;5.00;99.30;;;;;;5027827;28;20167;-82
2021/01/19 02:15:00;;;;;;;66.00;44.77;;;5.10;99.30;;;;;;5036801;28;20068;-83
2021/01/19 02:18:05;;;;;;;55.00;44.28;;;5.10;99.20;;;;;;5040811;28;20299;-82
2021/01/19 02:21:20;;;;;;;67.30;47.08;;;5.10;99.20;;;;;;4977786;28;20050;-82
2021/01/19 02:23:55;;;;;;;60.53;43.75;;;5.10;99.20;;;;;;4929713;28;20082;-82
2021/01/19 02:26:23;;;;;;;54.40;38.55;;;5.10;99.10;;;;;;4909559;29;20115;-82
2021/01/19 02:28:51;;;;;;;55.45;42.92;;;5.10;99.00;;;;;;4926573;29;20499;-82
2021/01/19 02:31:41;;;;;;;62.88;45.70;;;5.10;98.90;;;;;;4923369;29;20074;-82
2021/01/19 02:34:37;;;;;;;58.83;42.03;;;5.10;99.00;;;;;;4932322;29;20453;-82
2021/01/19 02:37:11;;;;;;;57.85;43.13;;;5.10;98.90;;;;;;4868051;29;20467;-82
2021/01/19 02:39:55;;;;;;;49.25;39.17;;;5.10;98.90;;;;;;4870179;29;20057;-82
2021/01/19 02:42:26;;;;;;;52.33;36.45;;;5.00;98.70;;;;;;4863957;29;20067;-82
2021/01/19 02:44:55;;;;;;;43.20;34.58;;;5.00;98.70;;;;;;4872234;29;20444;-82
2021/01/19 02:47:20;;;;;;;49.92;35.03;;;5.00;98.50;;;;;;4866842;29;20064;-82
2021/01/19 02:49:46;;;;;;;34.88;25.83;;;5.10;98.50;;;;;;4880602;29;20045;-82
2021/01/19 02:52:14;;;;;;;36.70;27.77;;;5.00;98.40;;;;;;4866735;29;20064;-82
2021/01/19 02:54:42;;;;;;;40.03;28.20;;;5.00;98.40;;;;;;4873496;29;20478;-82
2021/01/19 02:57:19;;;;;;;40.15;25.90;;;5.00;98.40;;;;;;4868296;29;20415;-82
2021/01/19 03:00:21;;;;;;;29.75;24.13;;;5.00;98.20;;;;;;4899803;29;20120;-83
2021/01/19 03:02:48;;;;;;;31.85;22.35;;;4.90;98.30;;;;;;4948399;28;20174;-82
2021/01/19 03:05:15;;;;;;;29.80;21.35;;;4.90;98.20;;;;;;4949678;28;20141;-82
2021/01/19 03:07:44;;;;;;;36.80;23.45;;;4.90;98.20;;;;;;4928089;28;20551;-82
2021/01/19 03:10:15;;;;;;;33.92;22.42;;;4.90;98.30;;;;;;4934270;28;20143;-82
2021/01/19 03:12:44;;;;;;;30.25;21.00;;;4.80;98.20;;;;;;4945693;28;20047;-83
2021/01/19 03:15:10;;;;;;;28.77;19.25;;;4.80;98.50;;;;;;5015150;28;20062;-82
2021/01/19 03:17:36;;;;;;;29.67;19.27;;;4.80;98.30;;;;;;5034514;28;20643;-83
2021/01/19 03:20:04;;;;;;;24.17;14.65;;;4.80;98.40;;;;;;5029364;28;20041;-83
2021/01/19 03:22:31;;;;;;;30.40;16.33;;;4.80;98.30;;;;;;5010023;28;20037;-83
2021/01/19 03:24:56;;;;;;;23.38;16.73;;;4.80;98.30;;;;;;5022574;28;20049;-83
2021/01/19 03:27:22;;;;;;;31.63;16.40;;;4.80;98.30;;;;;;5020993;28;20045;-82
2021/01/19 03:29:48;;;;;;;29.08;16.52;;;4.70;98.30;;;;;;5039987;28;20072;-83
2021/01/19 03:32:13;;;;;;;28.13;13.57;;;4.80;98.40;;;;;;5057956;28;20033;-82
2021/01/19 03:34:39;;;;;;;23.15;13.32;;;4.70;98.40;;;;;;5037402;28;20458;-84
2021/01/19 03:37:05;;;;;;;24.00;14.52;;;4.80;98.40;;;;;;5036975;28;20109;-84
2021/01/19 03:39:31;;;;;;;21.33;10.98;;;4.70;98.40;;;;;;5020169;28;20102;-83
2021/01/19 03:41:57;;;;;;;25.65;13.82;;;4.70;98.40;;;;;;5046595;28;20036;-84
2021/01/19 03:44:24;;;;;;;24.73;13.15;;;4.80;98.60;;;;;;5024375;28;20430;-83
2021/01/19 03:46:49;;;;;;;16.77;10.88;;;4.70;98.50;;;;;;5047508;28;20039;-83
2021/01/19 03:49:15;;;;;;;27.40;11.35;;;4.70;98.50;;;;;;5038873;28;20045;-82
2021/01/19 03:51:41;;;;;;;23.90;11.82;;;4.70;98.50;;;;;;5026835;28;20068;-82
2021/01/19 03:54:07;;;;;;;18.25;10.15;;;4.70;98.50;;;;;;5027027;28;20056;-83
2021/01/19 03:56:33;;;;;;;23.35;10.98;;;4.70;98.50;;;;;;5064974;28;20484;-83
2021/01/19 03:58:58;;;;;;;15.98;8.60;;;4.70;98.60;;;;;;5026066;28;20063;-83
2021/01/19 04:01:24;;;;;;;20.00;9.35;;;4.70;98.60;;;;;;5042129;28;20432;-82
2021/01/19 04:03:50;;;;;;;19.58;9.65;;;4.70;98.60;;;;;;5030460;28;20671;-82
2021/01/19 04:06:15;;;;;;;18.00;10.13;;;4.70;98.60;;;;;;5027118;28;20041;-82
2021/01/19 04:08:41;;;;;;;19.10;10.18;;;4.70;98.50;;;;;;5054822;28;20053;-82
2021/01/19 04:11:08;;;;;;;20.00;9.93;;;4.70;98.60;;;;;;5017364;28;20080;-82
2021/01/19 04:13:35;;;;;;;19.40;9.70;;;4.70;98.60;;;;;;5043654;28;20033;-82
2021/01/19 04:16:01;;;;;;;12.63;6.00;;;4.70;98.60;;;;;;5018934;28;20051;-83
2021/01/19 04:18:27;;;;;;;21.60;9.27;;;4.60;98.40;;;;;;5030267;28;20053;-82
2021/01/19 04:20:53;;;;;;;18.02;7.13;;;4.70;98.60;;;;;;5051132;28;20064;-83
2021/01/19 04:23:19;;;;;;;14.30;6.93;;;4.80;98.60;;;;;;5027985;28;20088;-82
2021/01/19 04:25:48;;;;;;;20.40;6.90;;;4.60;98.50;;;;;;5035982;28;20067;-82
2021/01/19 04:28:15;;;;;;;18.13;7.00;;;4.60;98.40;;;;;;5050829;28;20049;-83
2021/01/19 04:30:42;;;;;;;16.25;6.95;;;4.60;98.40;;;;;;5037876;28;20040;-83
2021/01/19 04:33:08;;;;;;;13.95;6.93;;;4.70;98.40;;;;;;5047991;28;20040;-83
2021/01/19 04:35:34;;;;;;;17.02;7.38;;;4.60;98.40;;;;;;5038632;28;20118;-82
2021/01/19 04:38:00;;;;;;;16.33;7.43;;;4.60;98.30;;;;;;5042847;28;20750;-83
2021/01/19 04:40:26;;;;;;;18.33;7.53;;;4.70;98.40;;;;;;5031904;28;20374;-82
2021/01/19 04:42:51;;;;;;;19.88;7.40;;;4.60;98.40;;;;;;5024380;28;20502;-83
2021/01/19 04:45:18;;;;;;;21.00;8.18;;;4.60;98.40;;;;;;5028809;28;20052;-82
2021/01/19 04:47:44;;;;;;;16.83;7.05;;;4.60;98.40;;;;;;5038172;28;20469;-83
2021/01/19 04:50:12;;;;;;;17.40;7.55;;;4.60;98.50;;;;;;5048549;28;20045;-84
2021/01/19 04:52:46;;;;;;;19.58;6.18;;;4.60;98.50;;;;;;5036347;28;20668;-82
2021/01/19 04:55:13;;;;;;;13.68;8.13;;;4.60;98.50;;;;;;5024542;28;20149;-83
2021/01/19 04:57:42;;;;;;;22.10;7.53;;;4.60;98.50;;;;;;5041690;28;20033;-82
2021/01/19 05:00:11;;;;;;;15.10;7.03;;;4.60;98.50;;;;;;5056980;28;20041;-82
2021/01/19 05:02:42;;;;;;;17.08;8.68;;;4.60;98.50;;;;;;5035465;28;20047;-83
2021/01/19 05:05:46;;;;;;;13.00;5.88;;;4.60;98.60;;;;;;5056962;28;20087;-83
2021/01/19 05:08:15;;;;;;;18.55;8.50;;;4.50;98.50;;;;;;4987101;28;20058;-83
2021/01/19 05:10:41;;;;;;;14.27;7.95;;;4.50;98.60;;;;;;5008526;28;20046;-82
2021/01/19 05:13:13;;;;;;;13.30;7.70;;;4.50;98.60;;;;;;4990484;28;20045;-83
2021/01/19 05:15:47;;;;;;;16.15;8.57;;;4.50;98.60;;;;;;4984065;28;20073;-83
2021/01/19 05:18:14;;;;;;;13.82;7.60;;;4.50;98.70;;;;;;5004470;28;20057;-82
2021/01/19 05:20:51;;;;;;;15.00;7.45;;;4.50;98.70;;;;;;4987838;28;20073;-83
2021/01/19 05:23:22;;;;;;;17.63;9.15;;;4.50;98.70;;;;;;4980674;28;20072;-83
2021/01/19 05:25:56;;;;;;;13.82;8.50;;;4.50;98.80;;;;;;4993846;28;20041;-84
2021/01/19 05:28:43;;;;;;;11.82;7.70;;;4.50;98.80;;;;;;4990134;28;20061;-83
2021/01/19 05:31:14;;;;;;;13.82;7.68;;;4.50;98.80;;;;;;4991202;28;20054;-83
2021/01/19 05:33:41;;;;;;;15.05;9.27;;;4.50;98.80;;;;;;5003384;28;20080;-82
2021/01/19 05:36:11;;;;;;;12.43;8.05;;;4.40;98.90;;;;;;5011335;28;20084;-83
2021/01/19 05:38:52;;;;;;;14.25;9.45;;;4.40;98.80;;;;;;5006105;28;20045;-83
2021/01/19 05:41:31;;;;;;;12.68;7.97;;;4.40;98.90;;;;;;4997816;28;20052;-82
2021/01/19 05:44:12;;;;;;;18.15;9.88;;;4.50;98.90;;;;;;5027144;28;20044;-82
2021/01/19 05:46:52;;;;;;;15.40;9.63;;;4.40;99.30;;;;;;5027718;28;20053;-82
2021/01/19 05:49:23;;;;;;;11.93;8.98;;;4.50;99.30;;;;;;5042087;28;20037;-81
2021/01/19 05:51:53;;;;;;;15.38;11.15;;;4.50;99.10;;;;;;5043741;28;20060;-82
2021/01/19 05:54:30;;;;;;;12.60;10.50;;;4.50;99.10;;;;;;5049610;28;20036;-81
2021/01/19 05:57:03;;;;;;;19.05;11.65;;;4.50;99.10;;;;;;5065957;28;20132;-81
2021/01/19 05:59:35;;;;;;;21.48;12.95;;;4.50;99.10;;;;;;5036994;28;20029;-81
2021/01/19 06:02:03;;;;;;;14.30;10.50;;;4.50;99.20;;;;;;5045073;28;20072;-81
2021/01/19 06:04:32;;;;;;;18.90;13.68;;;4.50;99.20;;;;;;5029501;28;20048;-81
2021/01/19 06:06:59;;;;;;;14.85;11.20;;;4.50;99.20;;;;;;5047864;28;20112;-81
2021/01/19 06:09:25;;;;;;;17.55;11.90;;;4.50;99.20;;;;;;5056939;28;20148;-81
2021/01/19 06:11:56;;;;;;;13.35;11.18;;;4.50;99.30;;;;;;5030854;28;20061;-81
2021/01/19 06:14:23;;;;;;;18.98;14.45;;;4.50;99.30;;;;;;5043052;28;20048;-81
2021/01/19 06:16:49;;;;;;;15.63;13.80;;;4.50;99.30;;;;;;5048055;28;20054;-81
2021/01/19 06:19:28;;;;;;;22.65;15.55;;;4.50;99.30;;;;;;5039219;28;20065;-82
2021/01/19 06:21:55;;;;;;;10.07;7.38;;;4.50;99.30;;;;;;5049535;28;20037;-82
2021/01/19 06:24:31;;;;;;;15.07;10.15;;;4.50;99.30;;;;;;5032291;28;20052;-81
2021/01/19 06:26:57;;;;;;;17.13;12.38;;;4.60;99.30;;;;;;5024544;28;20053;-81
2021/01/19 06:29:24;;;;;;;21.80;16.15;;;4.60;99.30;;;;;;5050978;28;20033;-81
2021/01/19 06:31:51;;;;;;;15.45;11.68;;;4.60;99.30;;;;;;5041858;28;20044;-82
2021/01/19 06:34:29;;;;;;;21.25;15.02;;;4.60;99.30;;;;;;5055190;28;20465;-82
2021/01/19 06:36:56;;;;;;;16.45;13.48;;;4.60;99.60;;;;;;5041226;28;20041;-82
2021/01/19 06:39:40;;;;;;;18.38;14.80;;;4.60;99.30;;;;;;5051426;28;20036;-82
2021/01/19 06:42:09;;;;;;;17.80;11.88;;;4.60;99.20;;;;;;5035701;28;20029;-82
2021/01/19 06:44:44;;;;;;;16.13;10.98;;;4.60;99.30;;;;;;5027017;28;20041;-83
2021/01/19 06:47:11;;;;;;;13.20;11.85;;;4.70;99.30;;;;;;5037447;28;20049;-81
2021/01/19 06:49:38;;;;;;;14.50;11.23;;;4.70;99.30;;;;;;5026049;28;20094;-81
2021/01/19 06:52:07;;;;;;;13.52;10.70;;;4.70;99.30;;;;;;5036724;28;20490;-81
2021/01/19 06:54:58;;;;;;;13.23;11.18;;;4.60;99.30;;;;;;5027202;28;20119;-82
2021/01/19 06:57:58;;;;;;;12.23;10.70;;;4.70;99.30;;;;;;5038097;28;20049;-82
2021/01/19 07:00:24;;;;;;;12.77;10.07;;;4.70;99.30;;;;;;5044119;28;20374;-82
2021/01/19 07:02:51;;;;;;;10.55;9.50;;;4.70;99.40;;;;;;5032206;28;20041;-82
2021/01/19 07:05:18;;;;;;;13.25;11.30;;;4.80;99.30;;;;;;5043547;28;20052;-82
2021/01/19 07:08:12;;;;;;;10.77;9.68;;;4.80;99.40;;;;;;5037796;28;20392;-85
2021/01/19 07:10:51;;;;;;;11.38;8.77;;;4.80;99.40;;;;;;5039360;28;20122;-83
2021/01/19 07:13:29;;;;;;;11.60;10.50;;;4.80;99.40;;;;;;5026642;28;20540;-85
2021/01/19 07:16:08;;;;;;;13.73;10.00;;;4.90;99.50;;;;;;5032909;28;20533;-86
2021/01/19 07:18:44;;;;;;;12.27;10.20;;;4.80;99.50;;;;;;5018567;28;20052;-85
2021/01/19 07:21:12;;;;;;;13.07;10.15;;;4.80;99.50;;;;;;5040397;28;20041;-86
2021/01/19 07:23:47;;;;;;;10.25;9.13;;;4.90;99.50;;;;;;5016885;28;20057;-85
2021/01/19 07:26:20;;;;;;;;;;;4.90;99.50;;;;;;5058867;28;20067;-87
2021/01/19 07:28:47;;;;;;;8.95;7.60;;;4.90;99.40;;;;;;5025374;28;20759;-87
2021/01/19 07:31:16;;;;;;;10.43;9.32;;;4.90;99.50;;;;;;5004773;28;20063;-85
2021/01/19 07:33:44;;;;;;;10.65;9.07;;;4.90;99.50;;;;;;5026592;28;20056;-81
2021/01/19 07:36:15;;;;;;;9.88;8.85;;;4.90;99.50;;;;;;5027385;28;20102;-87
2021/01/19 07:38:41;;;;;;;9.93;8.65;;;4.90;99.50;;;;;;5015171;28;20056;-87
2021/01/19 07:41:07;;;;;;;9.90;8.25;;;5.00;99.50;;;;;;5051048;28;20053;-86
2021/01/19 07:43:35;;;;;;;8.80;7.88;;;5.00;99.50;;;;;;5021590;28;20142;-86
2021/01/19 07:46:01;;;;;;;9.68;8.60;;;5.00;99.50;;;;;;5007030;28;20049;-86
2021/01/19 07:48:29;;;;;;;10.75;9.65;;;4.90;99.50;;;;;;4997484;28;20087;-87
2021/01/19 07:50:56;;;;;;;11.50;10.23;;;5.00;99.50;;;;;;5027476;28;20041;-89
2021/01/19 07:53:22;;;;;;;12.77;10.05;;;5.00;99.50;;;;;;5054985;28;20042;-86
2021/01/19 07:55:48;;;;;;;11.90;9.65;;;5.00;99.50;;;;;;5058636;28;20080;-87
2021/01/19 07:58:16;;;;;;;11.38;10.23;;;5.00;99.50;;;;;;5018370;28;20480;-88
2021/01/19 08:00:57;;;;;;;10.05;8.98;;;5.00;99.50;;;;;;5035720;28;20033;-87
2021/01/19 08:03:30;;;;;;;9.75;8.77;;;5.10;99.50;;;;;;5031116;28;20056;-88
2021/01/19 08:06:08;;;;;;;8.10;7.20;;;5.20;99.60;;;;;;5049602;28;20094;-86
2021/01/19 08:08:39;;;;;;;9.88;8.88;;;5.10;99.50;;;;;;5030618;28;20147;-88
2021/01/19 08:11:06;;;;;;;10.82;8.70;;;5.00;99.50;;;;;;5054082;28;20064;-89
2021/01/19 08:13:31;;;;;;;10.60;9.45;;;5.10;99.50;;;;;;5019091;28;20413;-88
2021/01/19 08:16:01;;;;;;;10.73;9.68;;;5.10;99.50;;;;;;5042830;28;20044;-87
2021/01/19 08:18:39;;;;;;;10.43;9.35;;;5.10;99.50;;;;;;5046210;28;20041;-87
2021/01/19 08:21:07;;;;;;;10.52;9.43;;;5.10;99.50;;;;;;5007860;28;20454;-86
2021/01/19 08:23:34;;;;;;;11.32;10.23;;;5.10;99.60;;;;;;5027969;28;20036;-87
2021/01/19 08:26:05;;;;;;;10.18;9.27;;;5.10;99.60;;;;;;5012590;28;20063;-88
2021/01/19 08:28:32;;;;;;;9.20;8.38;;;5.10;99.60;;;;;;5001039;28;20048;-87
2021/01/19 08:30:57;;;;;;;9.82;8.88;;;5.20;99.50;;;;;;5019429;28;20474;-84
2021/01/19 08:33:25;;;;;;;10.35;9.32;;;5.10;99.50;;;;;;5006847;28;20089;-85
2021/01/19 08:35:51;;;;;;;11.27;10.02;;;5.20;99.60;;;;;;5009682;28;20076;-88
2021/01/19 08:38:21;;;;;;;11.20;9.98;;;5.20;99.60;;;;;;5048291;28;20046;-85
2021/01/19 08:40:47;;;;;;;10.45;9.38;;;5.20;99.60;;;;;;5043702;28;20061;-87
2021/01/19 08:43:13;;;;;;;11.73;10.02;;;5.20;99.60;;;;;;5035116;28;20061;-82
2021/01/19 08:45:39;;;;;;;10.25;9.30;;;5.20;99.60;;;;;;5038364;28;20117;-87
2021/01/19 08:48:09;;;;;;;10.73;9.68;;;5.20;99.60;;;;;;5031239;28;20025;-84
2021/01/19 08:50:38;;;;;;;9.43;8.25;;;5.20;99.60;;;;;;5032080;28;20043;-84
2021/01/19 08:53:14;;;;;;;10.80;9.05;;;5.30;99.70;;;;;;5014259;28;20080;-85
2021/01/19 08:55:43;;;;;;;10.30;9.02;;;5.30;99.70;;;;;;5014464;28;20137;-82
2021/01/19 08:58:17;;;;;;;10.55;9.50;;;5.30;99.70;;;;;;5007729;28;20059;-84
2021/01/19 09:00:42;;;;;;;10.77;9.68;;;5.40;99.80;;;;;;5020338;28;20040;-84
2021/01/19 09:03:16;;;;;;;13.80;11.13;;;5.40;99.80;;;;;;5018526;28;20341;-82
2021/01/19 09:05:43;;;;;;;11.23;9.93;;;5.40;99.80;;;;;;5029425;28;20393;-84
2021/01/19 09:08:18;;;;;;;12.07;10.80;;;5.40;99.90;;;;;;5006165;28;21246;-86
2021/01/19 09:10:44;;;;;;;11.20;9.93;;;5.40;99.90;;;;;;4998101;28;20103;-85
2021/01/19 09:13:11;;;;;;;14.57;11.43;;;5.50;99.90;;;;;;5011355;28;20053;-84
2021/01/19 09:15:42;;;;;;;12.77;10.35;;;5.40;99.90;;;;;;5015405;28;20115;-85
2021/01/19 09:18:12;;;;;;;15.35;11.82;;;5.50;99.90;;;;;;5043132;28;20049;-88
2021/01/19 09:20:40;;;;;;;11.98;10.13;;;5.60;99.90;;;;;;5045783;28;20099;-88
2021/01/19 09:23:17;;;;;;;11.75;9.93;;;5.50;99.90;;;;;;5026786;28;20115;-88
2021/01/19 09:25:44;;;;;;;13.18;10.90;;;5.50;99.90;;;;;;5026632;28;20037;-84
2021/01/19 09:28:12;;;;;;;10.35;9.25;;;5.60;99.90;;;;;;5023841;28;20102;-85
2021/01/19 09:30:39;;;;;;;10.63;9.63;;;5.60;99.90;;;;;;5049018;28;20537;-83
2021/01/19 09:33:07;;;;;;;10.57;9.45;;;5.60;99.90;;;;;;5021281;28;20044;-83
2021/01/19 09:35:33;;;;;;;13.95;10.90;;;5.70;99.90;;;;;;5051690;28;20029;-83
2021/01/19 09:38:00;;;;;;;15.00;11.57;;;5.70;99.90;;;;;;5042726;28;20032;-83
2021/01/19 09:40:30;;;;;;;14.23;10.10;;;5.70;99.90;;;;;;5032002;28;20135;-83
2021/01/19 09:42:57;;;;;;;12.98;10.45;;;5.70;99.90;;;;;;5030577;28;20049;-83
2021/01/19 09:45:24;;;;;;;10.70;9.27;;;5.80;99.90;;;;;;5026037;28;20057;-84
2021/01/19 09:47:50;;;;;;;11.93;10.43;;;5.80;99.90;;;;;;5061812;28;20140;-81
2021/01/19 09:50:16;;;;;;;14.88;9.90;;;5.90;99.90;;;;;;5066522;28;20061;-86
2021/01/19 09:52:46;;;;;;;12.48;9.65;;;5.90;99.90;;;;;;5028031;28;20107;-86
2021/01/19 09:55:13;;;;;;;13.52;10.07;;;6.00;99.90;;;;;;5042144;28;20044;-86
2021/01/19 09:57:39;;;;;;;10.95;9.52;;;6.00;99.90;;;;;;5049079;28;20141;-87
2021/01/19 10:00:08;;;;;;;11.30;9.30;;;6.00;99.90;;;;;;5034674;28;20045;-84
2021/01/19 10:02:34;;;;;;;13.52;10.00;;;6.10;99.90;;;;;;5032277;28;20074;-84
2021/01/19 10:05:05;;;;;;;13.25;10.32;;;6.10;99.90;;;;;;5027644;28;20549;-81
2021/01/19 10:07:31;;;;;;;15.73;11.13;;;6.20;99.90;;;;;;5045932;28;20371;-83
2021/01/19 10:10:14;;;;;;;11.20;9.98;;;6.30;99.90;;;;;;5037833;28;20134;-83
2021/01/19 10:12:41;;;;;;;10.48;9.02;;;6.30;99.90;;;;;;5044180;28;20056;-82
2021/01/19 10:15:08;;;;;;;17.33;12.23;;;6.40;99.90;;;;;;5032403;28;20059;-82
2021/01/19 10:17:35;;;;;;;12.73;9.88;;;6.50;99.90;;;;;;5059819;28;20156;-84
2021/01/19 10:20:06;;;;;;;11.98;9.32;;;6.50;99.90;;;;;;5056188;28;20053;-83
2021/01/19 10:22:32;;;;;;;9.52;8.52;;;6.60;99.90;;;;;;5040212;28;20045;-85
2021/01/19 10:24:58;;;;;;;9.68;8.27;;;6.70;99.90;;;;;;5040129;28;20128;-80
2021/01/19 10:27:24;;;;;;;11.13;8.07;;;6.80;99.90;;;;;;5041505;28;20073;-80
2021/01/19 10:29:51;;;;;;;9.48;8.15;;;6.80;99.90;;;;;;5059821;28;20139;-82
2021/01/19 10:32:17;;;;;;;12.00;8.13;;;6.90;99.90;;;;;;5024748;28;20245;-82
2021/01/19 10:34:48;;;;;;;12.95;9.07;;;6.90;99.90;;;;;;5062369;28;20048;-81
2021/01/19 10:37:15;;;;;;;9.88;7.50;;;6.90;99.90;;;;;;5030422;28;20037;-81
2021/01/19 10:39:48;;;;;;;9.45;7.65;;;7.00;99.90;;;;;;5021968;28;20048;-85
2021/01/19 10:42:27;;;;;;;9.15;6.78;;;7.00;99.90;;;;;;5005991;28;20101;-82
2021/01/19 10:45:00;;;;;;;9.07;6.93;;;7.20;99.90;;;;;;5042751;28;20045;-82
2021/01/19 10:47:26;;;;;;;14.60;8.60;;;7.20;99.90;;;;;;5036755;28;20380;-83
2021/01/19 10:49:52;;;;;;;9.68;7.55;;;7.20;99.90;;;;;;5031253;28;20063;-85
2021/01/19 10:52:18;;;;;;;10.13;7.00;;;7.30;99.90;;;;;;5020031;28;20033;-84
2021/01/19 10:54:44;;;;;;;7.72;5.75;;;7.40;99.90;;;;;;5043772;28;20123;-81
2021/01/19 10:57:10;;;;;;;13.75;8.48;;;7.30;99.90;;;;;;5037856;28;20088;-81
2021/01/19 10:59:38;;;;;;;9.95;7.72;;;7.30;99.90;;;;;;5043294;28;20478;-83
2021/01/19 11:02:04;;;;;;;12.75;8.65;;;7.40;99.90;;;;;;5042537;28;20028;-83
2021/01/19 11:04:30;;;;;;;13.23;8.45;;;7.40;99.90;;;;;;5042026;28;20392;-83
2021/01/19 11:06:56;;;;;;;16.75;9.15;;;7.50;99.90;;;;;;5020185;28;20057;-84
2021/01/19 11:09:23;;;;;;;19.52;10.60;;;7.50;99.90;;;;;;5057688;28;20103;-83
2021/01/19 11:11:49;;;;;;;13.88;9.18;;;7.60;99.90;;;;;;5039653;28;20042;-83
2021/01/19 11:14:15;;;;;;;23.52;10.55;;;7.70;99.90;;;;;;5050423;28;20042;-84
2021/01/19 11:16:42;;;;;;;16.52;8.85;;;7.70;99.90;;;;;;5037589;28;20025;-83
2021/01/19 11:19:13;;;;;;;20.33;9.82;;;7.80;99.90;;;;;;5051680;28;20057;-83
2021/01/19 11:21:41;;;;;;;17.38;9.60;;;7.80;99.90;;;;;;5034862;28;20414;-82
2021/01/19 11:24:08;;;;;;;14.52;8.07;;;7.90;99.90;;;;;;5019440;28;20387;-82
2021/01/19 11:26:39;;;;;;;21.98;10.15;;;8.00;99.90;;;;;;5046625;28;20037;-83
2021/01/19 11:29:09;;;;;;;36.10;12.07;;;7.90;99.90;;;;;;5051582;28;20122;-82
2021/01/19 11:31:38;;;;;;;21.65;11.00;;;8.00;99.90;;;;;;5042061;28;20045;-83
2021/01/19 11:34:09;;;;;;;23.70;11.48;;;8.00;99.90;;;;;;5035406;28;20045;-82
2021/01/19 11:36:37;;;;;;;29.05;12.48;;;8.10;99.90;;;;;;5051746;28;20471;-85
2021/01/19 11:39:06;;;;;;;37.53;13.45;;;8.20;99.90;;;;;;5013695;28;20092;-83
2021/01/19 11:41:32;;;;;;;35.08;13.27;;;8.20;99.90;;;;;;5024951;28;20065;-82
2021/01/19 11:43:58;;;;;;;39.13;13.55;;;8.20;99.90;;;;;;5019593;28;20132;-83
2021/01/19 11:46:26;;;;;;;34.78;13.57;;;8.20;99.90;;;;;;5029482;28;20120;-83
2021/01/19 11:48:54;;;;;;;34.67;14.00;;;8.30;99.90;;;;;;5027505;28;21323;-82
2021/01/19 11:51:26;;;;;;;37.08;11.45;;;8.40;99.90;;;;;;5036911;28;20073;-83
2021/01/19 11:53:53;;;;;;;37.97;11.43;;;8.40;99.90;;;;;;5054478;28;20092;-83
2021/01/19 11:56:20;;;;;;;44.08;10.75;;;8.40;99.90;;;;;;5028684;28;20174;-83
2021/01/19 11:58:46;;;;;;;38.00;10.45;;;8.40;99.90;;;;;;5040716;28;20033;-82
2021/01/19 12:01:21;;;;;;;39.03;9.88;;;8.50;99.90;;;;;;5025551;28;20044;-83
2021/01/19 12:03:47;;;;;;;41.75;9.02;;;8.50;99.90;;;;;;5063382;28;20044;-82
2021/01/19 12:06:14;;;;;;;26.77;7.25;;;8.50;99.90;;;;;;5045569;28;20037;-83
2021/01/19 12:08:40;;;;;;;29.10;6.32;;;8.60;99.90;;;;;;5046490;28;20091;-81
2021/01/19 12:11:08;;;;;;;26.63;6.35;;;8.60;99.90;;;;;;5029812;28;20057;-84
2021/01/19 12:13:36;;;;;;;29.48;5.93;;;8.60;99.90;;;;;;5045202;28;20037;-87
2021/01/19 12:16:01;;;;;;;27.40;5.82;;;8.70;99.90;;;;;;5042542;28;20064;-86
2021/01/19 12:18:27;;;;;;;21.63;5.38;;;8.70;99.90;;;;;;5046808;28;20433;-86
2021/01/19 12:20:53;;;;;;;26.88;5.20;;;8.70;99.90;;;;;;5035196;28;20064;-82
2021/01/19 12:23:19;;;;;;;33.67;6.07;;;8.70;99.90;;;;;;5058142;28;20040;-82
2021/01/19 12:25:46;;;;;;;28.20;6.82;;;8.60;99.90;;;;;;5059573;28;20037;-81
2021/01/19 12:28:11;;;;;;;31.33;5.32;;;8.60;99.90;;;;;;5041922;28;20053;-83
2021/01/19 12:30:37;;;;;;;35.20;6.70;;;8.60;99.90;;;;;;5053017;28;20036;-86
2021/01/19 12:33:03;;;;;;;28.95;6.35;;;8.60;99.90;;;;;;5026376;28;20060;-86
2021/01/19 12:35:29;;;;;;;33.10;6.82;;;8.60;99.90;;;;;;5024910;28;20366;-87
2021/01/19 12:37:55;;;;;;;21.40;5.90;;;8.70;99.90;;;;;;5011303;28;20053;-83
2021/01/19 12:40:22;;;;;;;28.80;6.47;;;8.70;99.90;;;;;;5055614;28;20052;-83
2021/01/19 12:42:49;;;;;;;28.65;8.07;;;8.70;99.90;;;;;;5032866;28;20131;-84
2021/01/19 12:45:15;;;;;;;31.73;6.07;;;8.60;99.90;;;;;;5053915;28;20062;-85
2021/01/19 12:47:54;;;;;;;25.13;6.07;;;8.70;99.90;;;;;;5055403;28;20041;-86
2021/01/19 12:50:20;;;;;;;25.38;5.05;;;8.70;99.90;;;;;;5023464;28;20054;-89
2021/01/19 12:52:45;;;;;;;15.85;3.97;;;8.70;99.90;;;;;;5038714;28;20135;-88
2021/01/19 12:55:12;;;;;;;20.88;4.32;;;8.70;99.90;;;;;;5049551;28;20195;-87